Time;durP1;ratioP1;P1;durP2;ratioP2;P2;SDS_P1;SDS_P2;PMS_P1;PMS_P2;Temp;Humidity;BMP_temperature;BMP_pressure;BME280_temperature;BME280_humidity;BME280_pressure;Samples;Min_cycle;Max_cycle;Signal;HPM_P1;HPM_P2
2022/07/23 00:00:12;;;;;;;6.50;3.15;;;14.90;99.90;;;;;;5036474;28;20037;-69
2022/07/23 00:02:37;;;;;;;7.43;3.83;;;14.80;99.90;;;;;;5038764;28;20059;-68
2022/07/23 00:05:03;;;;;;;4.70;2.97;;;14.80;99.90;;;;;;5056863;28;20427;-70
2022/07/23 00:07:29;;;;;;;7.40;3.03;;;14.80;99.90;;;;;;5033768;28;22095;-69
2022/07/23 00:09:55;;;;;;;6.32;3.05;;;14.80;99.90;;;;;;5039964;28;20097;-68
2022/07/23 00:12:21;;;;;;;9.32;3.85;;;14.80;99.90;;;;;;5036456;28;20048;-70
2022/07/23 00:14:47;;;;;;;6.05;3.13;;;14.70;99.90;;;;;;5033107;28;20346;-69
2022/07/23 00:17:13;;;;;;;6.07;3.38;;;14.70;99.90;;;;;;5049930;28;20036;-67
2022/07/23 00:19:38;;;;;;;6.85;4.07;;;14.60;99.90;;;;;;5057408;28;20056;-69
2022/07/23 00:22:04;;;;;;;7.28;3.78;;;14.60;99.90;;;;;;5041422;28;20666;-69
2022/07/23 00:24:30;;;;;;;5.40;3.88;;;14.60;99.90;;;;;;5061368;28;20039;-69
2022/07/23 00:26:55;;;;;;;5.13;3.63;;;14.60;99.90;;;;;;5060398;28;20055;-68
2022/07/23 00:29:21;;;;;;;5.32;3.95;;;14.50;99.90;;;;;;5042623;28;20039;-67
2022/07/23 00:31:47;;;;;;;7.22;4.10;;;14.60;99.90;;;;;;5037937;28;20044;-68
2022/07/23 00:34:12;;;;;;;6.03;3.70;;;14.60;99.90;;;;;;5037661;28;20101;-68
2022/07/23 00:36:38;;;;;;;5.75;3.17;;;14.50;99.90;;;;;;5041352;28;20127;-70
2022/07/23 00:39:04;;;;;;;6.57;3.10;;;14.50;99.90;;;;;;5036930;28;20048;-69
2022/07/23 00:41:30;;;;;;;5.70;3.40;;;14.50;99.90;;;;;;5058320;28;20069;-69
2022/07/23 00:43:56;;;;;;;6.28;3.78;;;14.50;99.90;;;;;;5039482;28;20052;-69
2022/07/23 00:46:22;;;;;;;6.75;4.10;;;14.40;99.90;;;;;;5040957;28;20489;-67
2022/07/23 00:48:48;;;;;;;6.97;4.50;;;14.40;99.90;;;;;;5053768;28;20044;-68
2022/07/23 00:51:17;;;;;;;9.25;4.35;;;14.40;99.90;;;;;;5032156;28;20037;-68
2022/07/23 00:53:44;;;;;;;5.65;5.00;;;14.40;99.90;;;;;;5036587;28;21225;-69
2022/07/23 00:56:10;;;;;;;7.53;5.05;;;14.40;99.90;;;;;;5059921;28;20052;-66
2022/07/23 00:58:38;;;;;;;6.60;5.07;;;14.40;99.90;;;;;;5040619;28;20384;-70
2022/07/23 01:01:04;;;;;;;5.75;5.20;;;14.30;99.90;;;;;;5060201;28;20048;-69
2022/07/23 01:03:30;;;;;;;7.90;6.05;;;14.30;99.90;;;;;;5039968;28;20319;-68
2022/07/23 01:05:56;;;;;;;6.28;5.68;;;14.20;99.90;;;;;;5062847;28;20044;-68
2022/07/23 01:08:22;;;;;;;8.35;5.97;;;14.20;99.90;;;;;;5061119;28;20116;-69
2022/07/23 01:10:51;;;;;;;8.93;6.65;;;14.10;99.90;;;;;;5058523;28;20518;-67
2022/07/23 01:13:16;;;;;;;7.18;6.20;;;14.10;99.90;;;;;;5040819;28;20044;-69
2022/07/23 01:15:42;;;;;;;6.72;5.97;;;14.10;99.90;;;;;;5057306;28;20098;-69
2022/07/23 01:18:08;;;;;;;11.27;6.25;;;14.00;99.90;;;;;;5057944;28;20635;-68
2022/07/23 01:20:35;;;;;;;8.73;6.15;;;14.00;99.90;;;;;;5054334;28;20142;-69
2022/07/23 01:23:01;;;;;;;9.70;5.90;;;13.90;99.90;;;;;;5053751;28;20044;-69
2022/07/23 01:25:27;;;;;;;8.52;5.65;;;13.80;99.90;;;;;;5038189;28;20044;-70
2022/07/23 01:27:53;;;;;;;9.25;6.03;;;13.80;99.90;;;;;;5037030;28;20048;-69
2022/07/23 01:30:19;;;;;;;8.52;6.60;;;13.80;99.90;;;;;;5051571;28;20043;-67
2022/07/23 01:32:45;;;;;;;9.45;6.50;;;13.70;99.90;;;;;;5057326;28;20451;-67
2022/07/23 01:35:11;;;;;;;10.20;6.18;;;13.60;99.90;;;;;;5036832;28;20041;-69
2022/07/23 01:37:37;;;;;;;10.07;6.00;;;13.60;99.90;;;;;;5058253;28;20056;-69
2022/07/23 01:40:06;;;;;;;7.43;6.28;;;13.50;99.90;;;;;;5054458;28;20553;-68
2022/07/23 01:42:32;;;;;;;11.98;6.10;;;13.50;99.90;;;;;;5038993;28;20686;-69
2022/07/23 01:44:58;;;;;;;9.88;6.60;;;13.50;99.90;;;;;;5018071;28;20598;-68
2022/07/23 01:47:23;;;;;;;12.23;6.57;;;13.50;99.90;;;;;;5058293;28;20048;-68
2022/07/23 01:49:49;;;;;;;9.60;6.20;;;13.50;99.90;;;;;;5054189;28;20044;-69
2022/07/23 01:52:15;;;;;;;9.15;6.38;;;13.50;99.90;;;;;;5058882;28;20083;-68
2022/07/23 01:54:40;;;;;;;10.85;5.68;;;13.50;99.90;;;;;;5056676;28;20119;-68
2022/07/23 01:57:07;;;;;;;8.35;5.80;;;13.50;99.90;;;;;;5042122;28;20518;-67
2022/07/23 01:59:34;;;;;;;9.80;5.55;;;13.60;99.90;;;;;;5055994;28;20044;-68
2022/07/23 02:01:59;;;;;;;9.23;6.03;;;13.60;99.90;;;;;;5057606;28;20580;-68
2022/07/23 02:04:25;;;;;;;8.52;5.82;;;13.70;99.90;;;;;;5056205;28;20082;-69
2022/07/23 02:06:52;;;;;;;8.77;6.07;;;13.60;99.90;;;;;;5059468;28;20571;-68
2022/07/23 02:09:18;;;;;;;9.00;6.47;;;13.70;99.90;;;;;;5055896;28;20044;-70
2022/07/23 02:11:44;;;;;;;8.35;5.85;;;13.70;99.90;;;;;;5056475;28;20070;-68
2022/07/23 02:14:10;;;;;;;8.57;6.47;;;13.80;99.90;;;;;;5035821;28;20712;-67
2022/07/23 02:16:35;;;;;;;9.90;6.07;;;13.80;99.90;;;;;;5039166;28;20134;-69
2022/07/23 02:19:02;;;;;;;9.48;6.75;;;13.90;99.90;;;;;;5038632;28;20075;-69
2022/07/23 02:21:27;;;;;;;10.65;7.28;;;13.90;99.90;;;;;;5058513;28;20660;-69
2022/07/23 02:23:53;;;;;;;8.23;7.22;;;13.90;99.90;;;;;;5019948;28;20071;-68
2022/07/23 02:26:19;;;;;;;8.85;6.88;;;13.90;99.90;;;;;;5030407;28;20052;-68
2022/07/23 02:28:44;;;;;;;10.43;7.20;;;14.00;99.90;;;;;;5058529;28;20044;-68
2022/07/23 02:31:10;;;;;;;10.90;7.43;;;14.00;99.90;;;;;;5057166;28;20028;-70
2022/07/23 02:33:35;;;;;;;9.43;6.78;;;14.00;99.90;;;;;;5054532;28;20028;-68
2022/07/23 02:36:01;;;;;;;8.77;6.63;;;14.00;99.90;;;;;;5049892;28;20052;-69
2022/07/23 02:38:27;;;;;;;8.43;5.85;;;14.10;99.90;;;;;;5035165;28;20036;-69
2022/07/23 02:40:52;;;;;;;6.93;5.40;;;14.00;99.90;;;;;;5034744;28;20050;-68
2022/07/23 02:43:18;;;;;;;8.98;5.68;;;14.00;99.90;;;;;;5052669;28;20036;-69
2022/07/23 02:45:44;;;;;;;9.77;5.88;;;14.10;99.90;;;;;;5051832;28;20526;-70
2022/07/23 02:48:12;;;;;;;8.27;6.00;;;14.10;99.90;;;;;;5040727;28;20434;-68
2022/07/23 02:50:38;;;;;;;6.60;5.70;;;14.20;99.90;;;;;;5054955;28;20767;-69
2022/07/23 02:53:04;;;;;;;7.95;5.82;;;14.20;99.90;;;;;;5052946;28;20048;-69
2022/07/23 02:55:31;;;;;;;9.27;5.97;;;14.20;99.90;;;;;;5037009;28;20060;-69
2022/07/23 02:57:56;;;;;;;11.52;6.68;;;14.20;99.90;;;;;;5051868;28;20587;-68
2022/07/23 03:00:22;;;;;;;10.00;6.53;;;14.10;99.90;;;;;;5052690;28;20047;-68
2022/07/23 03:02:48;;;;;;;8.68;6.43;;;14.20;99.90;;;;;;5053433;28;20047;-68
2022/07/23 03:05:13;;;;;;;7.75;5.80;;;14.10;99.90;;;;;;5054725;28;20051;-68
2022/07/23 03:07:39;;;;;;;11.93;6.10;;;14.10;99.90;;;;;;5029986;28;20098;-68
2022/07/23 03:10:05;;;;;;;9.88;6.05;;;14.10;99.90;;;;;;5032920;28;20866;-67
2022/07/23 03:12:31;;;;;;;6.68;5.95;;;14.10;99.90;;;;;;5055276;28;20059;-68
2022/07/23 03:14:56;;;;;;;9.35;5.70;;;14.20;99.90;;;;;;5055861;28;20047;-70
2022/07/23 03:17:23;;;;;;;10.05;6.50;;;14.10;99.90;;;;;;5053869;28;20055;-68
2022/07/23 03:19:49;;;;;;;6.97;5.85;;;14.10;99.90;;;;;;5058546;28;20740;-70
2022/07/23 03:22:15;;;;;;;8.32;5.40;;;14.10;99.90;;;;;;5035620;28;20059;-69
2022/07/23 03:24:56;;;;;;;8.63;5.55;;;14.10;99.90;;;;;;5042675;28;20076;-68
2022/07/23 03:27:26;;;;;;;8.85;5.40;;;14.10;99.90;;;;;;5051061;28;20606;-68
2022/07/23 03:29:53;;;;;;;6.90;4.57;;;14.10;99.90;;;;;;5034011;28;20036;-69
2022/07/23 03:32:19;;;;;;;8.43;5.03;;;14.10;99.90;;;;;;5037266;28;20700;-69
2022/07/23 03:34:44;;;;;;;10.85;4.97;;;14.10;99.90;;;;;;5057127;28;20059;-69
2022/07/23 03:37:11;;;;;;;12.45;5.70;;;14.10;99.90;;;;;;5035228;28;20054;-68
2022/07/23 03:39:37;;;;;;;9.15;5.40;;;14.10;99.90;;;;;;5056477;28;20504;-69
2022/07/23 03:42:03;;;;;;;8.55;5.63;;;14.10;99.90;;;;;;5056583;28;20175;-70
2022/07/23 03:44:28;;;;;;;7.97;5.57;;;14.10;99.90;;;;;;5056577;28;20046;-69
2022/07/23 03:46:54;;;;;;;11.25;5.82;;;14.10;99.90;;;;;;5040660;28;20078;-70
2022/07/23 03:49:20;;;;;;;9.52;5.80;;;14.10;99.90;;;;;;5060528;28;20044;-68
2022/07/23 03:51:45;;;;;;;7.03;5.90;;;14.10;99.90;;;;;;5061685;28;20097;-68
2022/07/23 03:54:11;;;;;;;8.75;5.88;;;14.10;99.90;;;;;;5040915;28;20285;-71
2022/07/23 03:56:37;;;;;;;11.63;7.13;;;14.00;99.90;;;;;;5045024;28;20937;-69
2022/07/23 03:59:03;;;;;;;8.75;6.50;;;14.10;99.90;;;;;;5063322;28;20051;-68
2022/07/23 04:01:28;;;;;;;10.27;6.85;;;14.00;99.90;;;;;;5046904;28;20439;-69
2022/07/23 04:03:54;;;;;;;10.30;6.88;;;14.00;99.90;;;;;;5027873;28;20040;-69
2022/07/23 04:06:20;;;;;;;8.40;6.90;;;14.10;99.90;;;;;;5040916;28;20135;-68
2022/07/23 04:08:45;;;;;;;8.60;7.00;;;14.10;99.90;;;;;;5038823;28;20040;-67
2022/07/23 04:11:12;;;;;;;10.45;7.40;;;14.10;99.90;;;;;;5058220;28;20117;-68
2022/07/23 04:13:38;;;;;;;8.35;6.85;;;14.10;99.90;;;;;;5043860;28;20665;-69
2022/07/23 04:16:04;;;;;;;9.07;7.07;;;14.20;99.90;;;;;;5038691;28;20043;-69
2022/07/23 04:18:30;;;;;;;10.75;7.15;;;14.20;99.90;;;;;;5059032;28;20037;-70
2022/07/23 04:20:55;;;;;;;8.20;6.90;;;14.20;99.90;;;;;;5062007;28;20419;-68
2022/07/23 04:23:21;;;;;;;10.60;7.32;;;14.20;99.90;;;;;;5040173;28;20088;-68
2022/07/23 04:25:47;;;;;;;8.35;7.03;;;14.20;99.90;;;;;;5045006;28;20063;-69
2022/07/23 04:28:13;;;;;;;8.35;7.03;;;14.20;99.90;;;;;;5039344;28;20036;-68
2022/07/23 04:30:38;;;;;;;8.48;6.93;;;14.30;99.90;;;;;;5043329;28;20036;-68
2022/07/23 04:33:06;;;;;;;10.48;7.18;;;14.20;99.90;;;;;;5055932;28;20310;-68
2022/07/23 04:35:35;;;;;;;9.40;7.45;;;14.20;99.90;;;;;;5056043;28;20088;-67
2022/07/23 04:38:01;;;;;;;12.43;6.88;;;14.20;99.90;;;;;;5042813;28;20040;-68
2022/07/23 04:40:27;;;;;;;10.48;7.50;;;14.30;99.90;;;;;;5054886;28;20044;-69
2022/07/23 04:42:53;;;;;;;12.82;7.50;;;14.30;99.90;;;;;;5062783;28;20054;-67
2022/07/23 04:45:20;;;;;;;9.85;6.80;;;14.30;99.90;;;;;;5046179;28;20044;-68
2022/07/23 04:47:47;;;;;;;10.63;6.75;;;14.40;99.90;;;;;;5059467;28;20058;-70
2022/07/23 04:50:12;;;;;;;9.60;6.78;;;14.20;99.90;;;;;;5037252;28;20032;-67
2022/07/23 04:52:38;;;;;;;8.98;6.50;;;14.30;99.90;;;;;;5058947;28;20051;-69
2022/07/23 04:55:05;;;;;;;8.57;6.30;;;14.40;99.90;;;;;;5061675;28;20094;-68
2022/07/23 04:57:30;;;;;;;8.00;6.72;;;14.30;99.90;;;;;;5038410;28;20037;-68
2022/07/23 04:59:56;;;;;;;10.48;6.20;;;14.30;99.90;;;;;;5056257;28;20040;-70
2022/07/23 05:02:21;;;;;;;8.25;7.03;;;14.40;99.90;;;;;;5055071;28;20094;-70
2022/07/23 05:04:47;;;;;;;9.25;5.85;;;14.40;99.90;;;;;;5053862;28;20115;-70
2022/07/23 05:07:13;;;;;;;8.32;6.20;;;14.50;99.90;;;;;;5057057;28;20074;-69
2022/07/23 05:09:38;;;;;;;8.20;6.65;;;14.50;99.90;;;;;;5025222;28;20056;-67
2022/07/23 05:12:04;;;;;;;10.15;7.07;;;14.50;99.90;;;;;;5038021;28;20135;-70
2022/07/23 05:14:30;;;;;;;9.48;7.50;;;14.60;99.90;;;;;;5056276;28;20072;-69
2022/07/23 05:16:56;;;;;;;7.85;5.78;;;14.60;99.90;;;;;;5039284;28;20115;-68
2022/07/23 05:19:22;;;;;;;7.38;6.30;;;14.70;99.90;;;;;;5053148;28;20084;-70
2022/07/23 05:21:48;;;;;;;10.43;7.20;;;14.60;99.90;;;;;;5054786;28;20531;-69
2022/07/23 05:24:13;;;;;;;9.75;6.03;;;14.60;99.90;;;;;;5036182;28;20051;-69
2022/07/23 05:26:39;;;;;;;10.00;6.57;;;14.80;99.90;;;;;;5038228;28;20053;-69
2022/07/23 05:29:05;;;;;;;8.05;5.63;;;14.90;99.90;;;;;;5055369;28;20062;-69
2022/07/23 05:31:30;;;;;;;7.13;5.20;;;14.80;99.90;;;;;;5036024;28;20041;-70
2022/07/23 05:33:56;;;;;;;8.10;4.75;;;14.80;99.90;;;;;;5037150;28;20048;-69
2022/07/23 05:36:22;;;;;;;6.45;4.78;;;15.00;99.90;;;;;;5052944;28;20143;-70
2022/07/23 05:38:47;;;;;;;4.97;4.47;;;15.00;99.90;;;;;;5058905;28;20048;-68
2022/07/23 05:41:13;;;;;;;7.45;4.10;;;15.10;99.90;;;;;;5053785;28;20051;-69
2022/07/23 05:43:39;;;;;;;6.43;3.95;;;15.20;99.90;;;;;;5053137;28;20055;-67
2022/07/23 05:46:05;;;;;;;5.60;4.30;;;15.30;99.90;;;;;;5055338;28;20036;-70
2022/07/23 05:48:30;;;;;;;6.47;4.05;;;15.30;99.90;;;;;;5055615;28;20511;-70
2022/07/23 05:50:56;;;;;;;4.85;4.03;;;15.40;99.90;;;;;;5057397;28;20048;-68
2022/07/23 05:53:21;;;;;;;4.40;4.00;;;15.40;99.90;;;;;;5036309;28;20057;-69
2022/07/23 05:55:47;;;;;;;7.05;4.28;;;15.60;99.90;;;;;;5060662;28;20044;-68
2022/07/23 05:58:13;;;;;;;5.25;4.15;;;15.60;99.90;;;;;;5039482;28;20111;-70
2022/07/23 06:00:38;;;;;;;6.13;3.92;;;15.70;99.90;;;;;;5018547;28;20806;-67
2022/07/23 06:03:04;;;;;;;5.38;3.65;;;15.70;99.90;;;;;;5042066;28;20671;-68
2022/07/23 06:05:30;;;;;;;6.97;3.75;;;15.80;99.90;;;;;;5053842;28;20061;-68
2022/07/23 06:07:55;;;;;;;5.47;4.30;;;15.80;99.90;;;;;;5054737;28;20056;-68
2022/07/23 06:10:21;;;;;;;7.38;3.83;;;16.00;99.90;;;;;;5051648;28;20060;-70
2022/07/23 06:12:47;;;;;;;5.05;3.30;;;16.10;99.90;;;;;;5055093;28;20420;-69
2022/07/23 06:15:13;;;;;;;6.35;3.30;;;16.20;99.90;;;;;;5055566;28;20049;-69
2022/07/23 06:17:39;;;;;;;6.30;3.00;;;16.20;99.90;;;;;;5036100;28;20083;-69
2022/07/23 06:20:09;;;;;;;5.97;2.75;;;16.40;99.90;;;;;;5052044;28;20052;-70
2022/07/23 06:22:35;;;;;;;2.90;2.42;;;16.50;99.90;;;;;;5054796;28;20147;-69
2022/07/23 06:25:01;;;;;;;3.10;2.30;;;16.60;99.90;;;;;;5040127;28;20047;-68
2022/07/23 06:27:27;;;;;;;3.65;2.00;;;16.70;99.90;;;;;;5052162;28;20047;-67
2022/07/23 06:29:53;;;;;;;2.63;1.73;;;16.80;99.90;;;;;;5056574;28;20076;-70
2022/07/23 06:32:19;;;;;;;2.63;1.40;;;16.90;99.90;;;;;;5052742;28;20612;-68
2022/07/23 06:34:44;;;;;;;3.05;1.25;;;16.80;99.90;;;;;;5055627;28;20040;-67
2022/07/23 06:37:10;;;;;;;3.53;1.90;;;16.90;99.90;;;;;;5009266;28;20539;-69
2022/07/23 06:39:36;;;;;;;2.30;1.75;;;16.90;99.90;;;;;;5041180;28;20414;-69
2022/07/23 06:42:02;;;;;;;2.58;1.30;;;17.00;99.90;;;;;;5041403;28;20808;-69
2022/07/23 06:44:27;;;;;;;2.67;1.25;;;17.20;99.90;;;;;;5038893;28;20070;-69
2022/07/23 06:46:53;;;;;;;2.80;0.80;;;17.30;99.90;;;;;;5052015;28;20036;-68
2022/07/23 06:49:19;;;;;;;6.60;1.33;;;17.40;99.90;;;;;;5057692;28;20040;-69
2022/07/23 06:51:45;;;;;;;2.13;1.00;;;17.40;99.90;;;;;;5036837;28;20051;-68
2022/07/23 06:54:11;;;;;;;2.22;0.80;;;17.30;99.90;;;;;;5040341;28;20040;-68
2022/07/23 06:56:36;;;;;;;2.63;0.65;;;17.30;99.90;;;;;;5034079;28;20100;-69
2022/07/23 06:59:02;;;;;;;3.85;0.80;;;17.10;99.90;;;;;;5031578;28;20059;-68
2022/07/23 07:01:29;;;;;;;2.03;0.40;;;17.10;99.90;;;;;;5033001;28;20469;-70
2022/07/23 07:03:54;;;;;;;3.38;0.40;;;16.90;99.90;;;;;;5037898;28;20131;-70
2022/07/23 07:06:20;;;;;;;3.97;0.73;;;16.90;99.90;;;;;;5053903;28;20036;-68
2022/07/23 07:08:46;;;;;;;1.55;0.40;;;16.80;99.90;;;;;;5051066;28;20442;-70
2022/07/23 07:11:12;;;;;;;4.15;0.40;;;16.80;99.90;;;;;;5053017;28;20653;-67
2022/07/23 07:13:38;;;;;;;2.47;0.60;;;16.80;99.90;;;;;;5054965;28;20334;-69
2022/07/23 07:16:04;;;;;;;2.15;0.50;;;16.80;99.90;;;;;;5017749;28;20363;-67
2022/07/23 07:18:30;;;;;;;1.58;0.40;;;16.80;99.90;;;;;;5053999;28;20703;-66
2022/07/23 07:20:57;;;;;;;2.53;0.40;;;16.90;99.90;;;;;;5036748;28;20216;-67
2022/07/23 07:23:23;;;;;;;2.17;0.60;;;17.00;99.90;;;;;;5049734;28;20052;-67
2022/07/23 07:25:49;;;;;;;2.30;0.63;;;17.00;99.90;;;;;;5064677;28;20114;-68
2022/07/23 07:28:14;;;;;;;2.58;0.40;;;17.00;99.90;;;;;;5066067;28;20115;-69
2022/07/23 07:30:40;;;;;;;3.10;0.30;;;17.20;99.90;;;;;;5032175;28;20201;-68
2022/07/23 07:33:06;;;;;;;3.78;0.30;;;17.20;99.90;;;;;;5065887;28;20053;-68
2022/07/23 07:35:32;;;;;;;3.20;0.10;;;17.30;99.90;;;;;;5031703;28;20610;-68
2022/07/23 07:37:59;;;;;;;1.98;0.20;;;17.40;99.90;;;;;;5069014;28;20040;-67
2022/07/23 07:40:25;;;;;;;1.58;0.13;;;17.50;99.90;;;;;;5059712;28;20048;-67
2022/07/23 07:42:53;;;;;;;1.95;0.20;;;17.90;99.90;;;;;;5050781;28;20131;-68
2022/07/23 07:45:23;;;;;;;2.08;0.10;;;17.80;99.90;;;;;;5039766;28;20067;-68
2022/07/23 07:47:49;;;;;;;3.58;0.20;;;18.10;99.90;;;;;;5050769;28;20033;-70
2022/07/23 07:50:15;;;;;;;1.35;0.10;;;18.30;99.90;;;;;;5048519;28;20052;-70
2022/07/23 07:52:40;;;;;;;0.90;0.10;;;18.70;99.90;;;;;;5050498;28;20215;-66
2022/07/23 07:55:09;;;;;;;2.78;0.10;;;19.10;99.90;;;;;;5051005;28;20513;-67
2022/07/23 07:57:35;;;;;;;2.45;0.10;;;19.30;99.90;;;;;;5050292;28;20036;-70
2022/07/23 08:00:01;;;;;;;0.68;0.05;;;19.30;99.90;;;;;;5020820;28;20045;-68
2022/07/23 08:02:27;;;;;;;2.60;0.10;;;19.10;99.90;;;;;;5049571;28;20051;-69
2022/07/23 08:04:53;;;;;;;1.00;0.10;;;19.40;99.90;;;;;;5031300;28;20205;-68
2022/07/23 08:07:19;;;;;;;2.35;0.10;;;19.70;99.90;;;;;;5033480;28;21082;-71
2022/07/23 08:09:45;;;;;;;1.88;0.10;;;20.40;99.90;;;;;;5050346;28;20390;-68
2022/07/23 08:12:10;;;;;;;1.08;0.10;;;20.40;99.90;;;;;;5068508;28;20059;-68
2022/07/23 08:14:36;;;;;;;2.50;0.20;;;20.10;99.90;;;;;;5069072;28;20452;-68
2022/07/23 08:17:02;;;;;;;2.40;0.10;;;19.80;99.90;;;;;;5034067;28;20690;-69
2022/07/23 08:19:28;;;;;;;1.17;0.10;;;19.70;99.90;;;;;;5050323;28;20056;-68
2022/07/23 08:21:53;;;;;;;1.60;0.10;;;19.60;99.90;;;;;;5036948;28;20559;-69
2022/07/23 08:24:19;;;;;;;1.33;0.05;;;19.30;99.90;;;;;;5047979;28;20534;-68
2022/07/23 08:26:45;;;;;;;1.33;0.10;;;19.20;99.90;;;;;;5037358;28;20120;-70
2022/07/23 08:29:10;;;;;;;0.70;0.10;;;19.50;99.90;;;;;;5068019;28;20048;-67
2022/07/23 08:31:36;;;;;;;1.05;0.10;;;19.50;99.90;;;;;;5062883;28;20060;-67
2022/07/23 08:34:02;;;;;;;2.15;0.15;;;19.50;99.90;;;;;;5049125;28;20374;-70
2022/07/23 08:36:31;;;;;;;1.10;0.10;;;19.40;99.90;;;;;;5030895;28;20396;-70
2022/07/23 08:38:59;;;;;;;2.15;0.13;;;19.60;99.90;;;;;;5066617;28;20040;-68
2022/07/23 08:41:24;;;;;;;0.60;0.10;;;19.80;99.90;;;;;;5037430;28;20224;-70
2022/07/23 08:43:51;;;;;;;1.13;0.10;;;19.80;99.90;;;;;;5068008;28;20035;-70
2022/07/23 08:46:18;;;;;;;1.70;0.20;;;20.00;99.90;;;;;;5045254;28;20044;-67
2022/07/23 08:48:47;;;;;;;3.53;0.20;;;20.80;99.90;;;;;;5036916;28;20611;-67
2022/07/23 08:51:13;;;;;;;1.80;0.10;;;20.60;99.90;;;;;;5056729;28;20055;-68
2022/07/23 08:53:40;;;;;;;0.98;0.10;;;20.30;99.90;;;;;;5053085;28;20040;-68
2022/07/23 08:56:07;;;;;;;3.05;0.20;;;19.90;99.90;;;;;;5038759;28;20083;-68
2022/07/23 08:58:34;;;;;;;2.50;0.10;;;19.90;99.90;;;;;;5054111;28;20056;-68
2022/07/23 09:01:00;;;;;;;2.88;0.10;;;20.30;99.90;;;;;;5064063;28;20040;-68
2022/07/23 09:03:31;;;;;;;1.42;0.10;;;20.20;99.90;;;;;;5058262;28;21242;-67
2022/07/23 09:05:58;;;;;;;1.40;0.10;;;20.50;99.90;;;;;;5064513;28;21011;-68
2022/07/23 09:08:33;;;;;;;2.38;0.10;;;20.40;99.90;;;;;;5051386;28;20553;-68
2022/07/23 09:11:01;;;;;;;1.00;0.10;;;20.20;99.90;;;;;;5044581;28;20135;-69
2022/07/23 09:14:03;;;;;;;5.07;0.20;;;20.00;99.90;;;;;;5070770;28;20104;-69
2022/07/23 09:16:30;;;;;;;4.13;0.10;;;19.20;99.90;;;;;;4996286;28;20052;-71
2022/07/23 09:19:02;;;;;;;0.75;0.00;;;19.60;99.90;;;;;;5032082;28;20088;-69
2022/07/23 09:21:35;;;;;;;1.67;0.10;;;20.20;99.90;;;;;;5061824;28;20401;-69
2022/07/23 09:24:04;;;;;;;1.08;0.10;;;20.20;99.90;;;;;;5016528;28;20064;-67
2022/07/23 09:26:40;;;;;;;0.70;0.10;;;20.50;99.90;;;;;;5058282;28;20122;-67
2022/07/23 09:29:12;;;;;;;0.63;0.13;;;20.40;99.90;;;;;;5050521;28;20048;-68
2022/07/23 09:31:56;;;;;;;1.02;0.10;;;20.40;99.90;;;;;;5034007;28;20040;-68
2022/07/23 09:34:24;;;;;;;1.13;0.10;;;20.50;99.90;;;;;;5033657;28;20040;-69
2022/07/23 09:36:56;;;;;;;0.65;0.10;;;20.50;99.90;;;;;;5040928;28;20139;-69
2022/07/23 09:39:29;;;;;;;0.80;0.10;;;20.50;99.90;;;;;;5070556;28;20079;-67
2022/07/23 09:41:55;;;;;;;1.10;0.10;;;20.80;99.90;;;;;;5070603;28;20070;-68
2022/07/23 09:44:21;;;;;;;1.95;0.10;;;21.50;99.90;;;;;;5061261;28;20392;-68
2022/07/23 09:46:49;;;;;;;0.60;0.08;;;21.70;99.90;;;;;;5063419;28;20913;-69
2022/07/23 09:49:18;;;;;;;1.10;0.08;;;21.90;99.90;;;;;;5070563;28;20044;-68
2022/07/23 09:51:52;;;;;;;2.20;0.10;;;21.80;99.90;;;;;;5052135;28;20051;-69
2022/07/23 09:54:41;;;;;;;0.95;0.10;;;20.90;99.90;;;;;;5070830;28;20056;-68
2022/07/23 09:57:15;;;;;;;1.20;0.10;;;20.80;99.90;;;;;;5046659;28;20059;-67
2022/07/23 09:59:42;;;;;;;1.23;0.10;;;21.00;99.90;;;;;;5069720;28;20455;-67
2022/07/23 10:02:11;;;;;;;1.05;0.10;;;21.20;99.90;;;;;;5043196;28;20060;-67
2022/07/23 10:04:38;;;;;;;2.58;0.10;;;20.90;99.90;;;;;;5069978;28;20040;-69
2022/07/23 10:07:08;;;;;;;1.55;0.10;;;21.20;99.90;;;;;;5052742;28;20059;-67
2022/07/23 10:09:37;;;;;;;1.77;0.10;;;21.30;99.90;;;;;;5059502;28;20152;-68
2022/07/23 10:14:50;;;;;;;2.05;0.10;;;21.90;99.90;;;;;;5069511;28;20118;-68
2022/07/23 10:17:17;;;;;;;0.90;0.10;;;22.20;99.90;;;;;;5051728;28;20632;-68
2022/07/23 10:19:43;;;;;;;1.75;0.20;;;22.30;99.90;;;;;;5068782;28;20044;-67
2022/07/23 10:22:19;;;;;;;1.20;0.13;;;21.80;99.90;;;;;;5050765;28;20979;-68
2022/07/23 10:25:03;;;;;;;1.85;0.10;;;21.70;99.90;;;;;;5015498;28;20307;-70
2022/07/23 10:27:42;;;;;;;0.70;0.10;;;22.20;99.90;;;;;;5062687;28;20159;-68
2022/07/23 10:30:14;;;;;;;0.70;0.10;;;22.40;99.90;;;;;;5050735;28;20052;-68
2022/07/23 10:33:04;;;;;;;1.42;0.10;;;21.80;99.90;;;;;;5056082;28;20603;-68
2022/07/23 10:35:43;;;;;;;0.47;0.10;;;21.50;99.90;;;;;;5040445;28;20557;-68
2022/07/23 10:38:14;;;;;;;0.40;0.10;;;21.50;99.90;;;;;;5062667;28;20087;-67
2022/07/23 10:40:57;;;;;;;2.53;0.20;;;22.00;99.90;;;;;;5067951;28;20039;-68
2022/07/23 10:43:23;;;;;;;0.43;0.00;;;21.60;99.90;;;;;;5051065;28;20048;-68
2022/07/23 10:45:49;;;;;;;1.23;0.10;;;21.80;99.90;;;;;;5047154;28;20090;-71
2022/07/23 10:48:20;;;;;;;1.05;0.10;;;21.80;99.90;;;;;;5038099;28;20071;-68
2022/07/23 10:51:09;;;;;;;1.52;0.10;;;21.90;99.90;;;;;;5050536;28;20045;-68
2022/07/23 10:53:52;;;;;;;1.25;0.10;;;22.10;99.90;;;;;;5054534;28;20052;-68
2022/07/23 10:56:59;;;;;;;1.35;0.10;;;22.20;99.90;;;;;;5036512;28;20052;-71
2022/07/23 10:59:24;;;;;;;2.25;0.10;;;21.90;99.90;;;;;;5055786;28;20597;-70
2022/07/23 11:01:50;;;;;;;1.48;0.10;;;21.90;99.90;;;;;;5051154;28;20048;-67
2022/07/23 11:04:16;;;;;;;1.63;0.28;;;21.40;99.90;;;;;;5056663;28;20030;-68
2022/07/23 11:06:48;;;;;;;0.20;0.00;;;22.00;99.90;;;;;;5048266;28;20105;-69
2022/07/23 11:09:25;;;;;;;1.65;0.10;;;21.70;99.90;;;;;;5034440;28;20059;-69
2022/07/23 11:12:14;;;;;;;0.50;0.10;;;21.50;99.90;;;;;;5042136;28;20063;-67
2022/07/23 11:15:03;;;;;;;2.22;0.10;;;21.90;99.90;;;;;;5039059;28;20135;-70
2022/07/23 11:17:30;;;;;;;0.98;0.10;;;21.90;99.90;;;;;;5035412;28;20036;-68
2022/07/23 11:20:20;;;;;;;1.98;0.20;;;22.20;99.90;;;;;;5046347;28;20461;-68
2022/07/23 11:22:47;;;;;;;1.55;0.13;;;21.60;99.90;;;;;;5037399;28;20041;-68
2022/07/23 11:25:22;;;;;;;1.80;0.10;;;21.80;99.90;;;;;;5062097;28;20060;-68
2022/07/23 11:27:50;;;;;;;1.83;0.10;;;21.90;99.90;;;;;;5050089;28;20091;-68
2022/07/23 11:30:28;;;;;;;3.70;0.10;;;21.70;99.90;;;;;;5050913;28;20631;-67
2022/07/23 11:33:08;;;;;;;1.50;0.10;;;21.60;99.90;;;;;;5054654;28;20032;-67
2022/07/23 11:35:40;;;;;;;2.03;0.20;;;21.30;99.90;;;;;;5038176;28;20135;-66
2022/07/23 11:38:22;;;;;;;1.92;0.20;;;21.50;99.90;;;;;;5061286;28;20103;-69
2022/07/23 11:40:50;;;;;;;0.65;0.10;;;21.00;99.90;;;;;;5048212;28;20346;-69
2022/07/23 11:43:17;;;;;;;1.92;0.10;;;21.00;99.90;;;;;;5059655;28;20044;-69
2022/07/23 11:45:45;;;;;;;1.10;0.10;;;21.30;99.90;;;;;;5060553;28;20144;-68
2022/07/23 11:48:20;;;;;;;3.85;0.20;;;21.00;99.90;;;;;;5029481;28;20040;-68
2022/07/23 11:50:46;;;;;;;2.03;0.20;;;21.20;99.90;;;;;;5067637;28;20076;-68
2022/07/23 11:53:13;;;;;;;5.32;0.57;;;21.00;99.90;;;;;;5049762;28;20804;-68
2022/07/23 11:55:39;;;;;;;1.00;0.10;;;20.90;99.90;;;;;;5065234;28;20052;-67
2022/07/23 11:58:05;;;;;;;1.13;0.20;;;20.80;99.90;;;;;;5039818;28;20074;-69
2022/07/23 12:00:31;;;;;;;3.35;0.20;;;20.70;99.90;;;;;;5068294;28;20080;-68
2022/07/23 12:03:00;;;;;;;1.15;0.13;;;20.60;99.90;;;;;;5064525;28;20452;-69
2022/07/23 12:05:33;;;;;;;4.68;0.20;;;20.50;99.90;;;;;;5061213;28;20044;-67
2022/07/23 12:08:00;;;;;;;2.30;0.20;;;20.20;99.90;;;;;;5048434;28;20024;-68
2022/07/23 12:10:37;;;;;;;3.38;0.20;;;20.20;99.90;;;;;;5035143;28;20578;-68
2022/07/23 12:13:11;;;;;;;2.22;0.20;;;20.30;99.90;;;;;;5050937;28;20044;-68
2022/07/23 12:15:52;;;;;;;1.35;0.20;;;20.70;99.90;;;;;;5035662;28;20095;-68
2022/07/23 12:18:20;;;;;;;3.30;0.20;;;20.60;99.90;;;;;;5052244;28;20165;-67
2022/07/23 12:20:49;;;;;;;2.53;0.20;;;20.70;99.90;;;;;;5051267;28;20036;-69
2022/07/23 12:23:16;;;;;;;0.82;0.17;;;20.90;99.90;;;;;;5059877;28;20044;-69
2022/07/23 12:25:44;;;;;;;2.35;0.20;;;20.90;99.90;;;;;;5034527;28;20496;-68
2022/07/23 12:28:15;;;;;;;1.33;0.20;;;20.60;99.90;;;;;;5051183;28;20067;-69
2022/07/23 12:30:49;;;;;;;1.20;0.20;;;20.80;99.90;;;;;;5067026;28;20035;-67
2022/07/23 12:33:26;;;;;;;2.15;0.20;;;21.10;99.90;;;;;;5071543;28;20055;-67
2022/07/23 12:35:54;;;;;;;1.88;0.20;;;21.30;99.90;;;;;;5071142;28;20411;-70
2022/07/23 12:38:21;;;;;;;3.40;0.20;;;21.20;99.90;;;;;;5050411;28;20070;-69
2022/07/23 12:40:53;;;;;;;2.22;0.20;;;20.80;99.90;;;;;;5051892;28;20056;-70
2022/07/23 12:43:39;;;;;;;0.80;0.10;;;20.90;99.90;;;;;;5053123;28;20041;-68
2022/07/23 12:46:06;;;;;;;2.03;0.20;;;21.10;99.90;;;;;;5028147;28;20036;-69
2022/07/23 12:48:39;;;;;;;1.77;0.20;;;21.10;99.90;;;;;;5042816;28;20050;-67
2022/07/23 12:51:14;;;;;;;1.00;0.20;;;21.40;99.90;;;;;;5067046;28;20054;-67